Time;durP1;ratioP1;P1;durP2;ratioP2;P2;SDS_P1;SDS_P2;PMS_P1;PMS_P2;Temp;Humidity;BMP_temperature;BMP_pressure;BME280_temperature;BME280_humidity;BME280_pressure;Samples;Min_cycle;Max_cycle;Signal;HPM_P1;HPM_P2
2022/02/11 00:08:59;;;;;;;25.17;19.55;;;7.10;79.80;;;;;;5046098;28;20031;-62
2022/02/11 00:11:32;;;;;;;26.80;19.02;;;7.10;79.70;;;;;;5045565;28;20147;-62
2022/02/11 00:13:58;;;;;;;23.27;18.52;;;7.10;79.60;;;;;;5049670;28;20378;-62
2022/02/11 00:16:24;;;;;;;25.73;19.63;;;7.20;79.70;;;;;;5047631;28;20031;-62
2022/02/11 00:18:50;;;;;;;24.83;19.08;;;7.20;79.50;;;;;;5046179;28;20099;-62
2022/02/11 00:21:20;;;;;;;25.02;19.75;;;7.20;79.50;;;;;;5043251;28;20597;-62
2022/02/11 00:23:46;;;;;;;25.25;19.95;;;7.20;79.60;;;;;;5045137;28;20028;-62
2022/02/11 00:26:12;;;;;;;25.98;19.88;;;7.10;79.60;;;;;;5045054;28;20108;-62
2022/02/11 00:33:40;;;;;;;27.98;21.75;;;7.00;80.00;;;;;;5044076;28;20548;-62
2022/02/11 00:36:08;;;;;;;29.35;23.75;;;6.90;80.10;;;;;;5045158;28;20029;-62
2022/02/11 00:47:11;;;;;;;24.33;18.70;;;6.90;80.50;;;;;;5050803;28;20219;-62
2022/02/11 01:03:22;;;;;;;22.52;17.83;;;6.90;80.90;;;;;;5049855;28;20036;-62
2022/02/11 01:05:47;;;;;;;20.65;16.20;;;6.90;80.70;;;;;;5043634;28;20033;-62
2022/02/11 01:08:13;;;;;;;21.20;16.75;;;6.90;80.90;;;;;;5048914;28;20036;-62
2022/02/11 01:10:39;;;;;;;21.65;16.60;;;6.90;80.70;;;;;;5046058;28;20164;-62
2022/02/11 01:13:05;;;;;;;22.13;16.98;;;7.00;80.70;;;;;;5046295;28;20116;-62
2022/02/11 01:15:33;;;;;;;19.67;16.75;;;7.00;80.60;;;;;;5042520;28;20044;-62
2022/02/11 01:18:02;;;;;;;20.33;16.17;;;7.00;80.60;;;;;;5044760;28;20029;-62
2022/02/11 01:39:24;;;;;;;24.70;17.80;;;7.10;80.40;;;;;;5051191;28;20091;-62
2022/02/11 01:50:06;;;;;;;22.40;17.08;;;7.20;80.20;;;;;;5044385;28;20080;-62
2022/02/11 01:55:29;;;;;;;21.23;16.95;;;7.20;79.90;;;;;;5043669;28;20025;-62
2022/02/11 01:58:16;;;;;;;20.30;15.98;;;7.20;79.90;;;;;;5042741;28;20029;-62
2022/02/11 02:03:36;;;;;;;23.15;17.27;;;7.20;80.10;;;;;;5046933;28;20025;-62
2022/02/11 02:09:01;;;;;;;22.60;18.35;;;7.20;79.90;;;;;;5049336;28;20036;-62
2022/02/11 02:19:59;;;;;;;27.40;22.33;;;7.30;79.30;;;;;;5054610;28;20021;-62
2022/02/11 02:24:58;;;;;;;31.73;25.85;;;7.30;79.30;;;;;;5053799;28;20151;-62
2022/02/11 02:58:10;;;;;;;25.52;20.17;;;7.40;78.90;;;;;;5046626;28;20106;-62
2022/02/11 03:49:54;;;;;;;19.27;16.23;;;7.10;78.70;;;;;;5049389;28;20063;-62
2022/02/11 03:52:46;;;;;;;18.58;15.38;;;7.10;78.70;;;;;;5046392;28;20037;-61
2022/02/11 04:20:27;;;;;;;20.27;15.80;;;7.10;78.90;;;;;;5046242;28;20392;-62
2022/02/11 04:55:22;;;;;;;32.15;24.90;;;7.00;78.70;;;;;;5049171;28;20520;-62
2022/02/11 05:00:29;;;;;;;29.65;22.90;;;7.10;78.70;;;;;;5048042;28;20179;-62
2022/02/11 05:02:57;;;;;;;29.63;22.75;;;7.00;78.70;;;;;;5050896;28;20152;-62
2022/02/11 05:05:23;;;;;;;30.35;21.85;;;7.00;78.80;;;;;;5051297;28;20056;-62
2022/02/11 05:07:49;;;;;;;26.73;21.63;;;7.00;78.90;;;;;;5043960;28;20069;-62
2022/02/11 05:10:15;;;;;;;29.13;22.50;;;7.00;78.90;;;;;;5049988;28;20029;-62
2022/02/11 05:12:45;;;;;;;24.38;19.98;;;7.00;78.80;;;;;;5047959;28;20116;-62
2022/02/11 05:15:11;;;;;;;25.67;21.55;;;7.00;79.00;;;;;;5051314;28;20025;-62
2022/02/11 05:17:38;;;;;;;23.63;19.88;;;7.00;79.00;;;;;;5049765;28;20025;-62
2022/02/11 05:20:06;;;;;;;26.85;21.52;;;7.10;79.00;;;;;;5045260;28;20036;-62
2022/02/11 05:22:32;;;;;;;23.33;20.00;;;7.00;79.00;;;;;;5046455;28;20029;-62
2022/02/11 05:24:58;;;;;;;24.88;20.55;;;7.10;79.00;;;;;;5048617;28;20090;-62
2022/02/11 05:27:24;;;;;;;22.67;20.10;;;7.10;79.00;;;;;;5048879;28;20025;-62
2022/02/11 05:29:50;;;;;;;26.30;21.10;;;7.10;78.90;;;;;;5053670;28;20041;-62
2022/02/11 05:32:15;;;;;;;26.98;22.95;;;7.10;78.80;;;;;;5043831;28;20032;-62
2022/02/11 05:34:41;;;;;;;26.00;21.80;;;7.20;78.80;;;;;;5046893;28;20087;-62
2022/02/11 05:37:07;;;;;;;24.77;20.60;;;7.20;78.80;;;;;;5047112;28;20795;-62
2022/02/11 05:39:32;;;;;;;28.83;23.33;;;7.20;79.30;;;;;;5043376;28;20021;-62
2022/02/11 05:41:58;;;;;;;28.38;23.27;;;7.20;78.50;;;;;;5052353;28;20021;-62
2022/02/11 05:44:24;;;;;;;31.45;26.17;;;7.30;78.80;;;;;;5045172;28;20059;-62
2022/02/11 05:46:50;;;;;;;34.08;28.67;;;7.20;79.10;;;;;;5045055;28;20033;-62
2022/02/11 05:49:16;;;;;;;33.53;29.60;;;7.20;78.50;;;;;;5046294;28;20469;-61
2022/02/11 05:51:42;;;;;;;36.15;30.13;;;7.30;78.50;;;;;;5046864;28;20469;-61
2022/02/11 05:54:08;;;;;;;37.50;31.63;;;7.30;78.40;;;;;;5041357;28;20607;-62
2022/02/11 05:56:34;;;;;;;38.90;30.88;;;7.30;78.30;;;;;;5041749;28;20063;-62
2022/02/11 05:59:00;;;;;;;38.08;31.27;;;7.30;78.30;;;;;;5046902;28;20025;-62
2022/02/11 06:01:25;;;;;;;38.45;30.52;;;7.30;78.20;;;;;;5047122;28;20096;-62
2022/02/11 06:03:51;;;;;;;36.53;30.63;;;7.40;78.30;;;;;;5049085;28;20120;-62
2022/02/11 06:06:16;;;;;;;34.65;29.23;;;7.40;78.90;;;;;;5053843;28;20021;-62
2022/02/11 06:08:42;;;;;;;34.55;29.23;;;7.40;78.10;;;;;;5049272;28;20032;-61
2022/02/11 06:11:08;;;;;;;33.13;26.95;;;7.40;78.10;;;;;;5053109;28;20032;-62
2022/02/11 06:13:34;;;;;;;30.52;23.27;;;7.40;78.00;;;;;;5059477;28;20380;-62
2022/02/11 06:16:00;;;;;;;32.60;23.23;;;7.40;77.90;;;;;;5053693;28;20139;-62
2022/02/11 06:18:26;;;;;;;22.15;19.17;;;7.40;77.80;;;;;;5053213;28;20033;-62
2022/02/11 06:20:52;;;;;;;24.65;19.98;;;7.30;77.80;;;;;;5054006;28;20021;-62
2022/02/11 06:23:17;;;;;;;21.45;16.52;;;7.40;77.90;;;;;;5050264;28;20035;-62
2022/02/11 06:25:43;;;;;;;22.92;17.85;;;7.40;77.90;;;;;;5051369;28;20032;-62
2022/02/11 06:28:11;;;;;;;23.05;17.95;;;7.40;77.90;;;;;;5052945;28;20040;-62
2022/02/11 06:30:37;;;;;;;22.58;17.83;;;7.40;77.80;;;;;;5046197;28;20059;-62
2022/02/11 06:33:03;;;;;;;26.67;19.63;;;7.40;77.90;;;;;;5055591;28;20378;-62
2022/02/11 06:35:34;;;;;;;25.10;20.10;;;7.40;77.90;;;;;;5049006;28;20084;-62
2022/02/11 06:38:00;;;;;;;25.98;19.52;;;7.50;77.90;;;;;;5052075;28;20031;-62
2022/02/11 06:40:29;;;;;;;27.50;20.50;;;7.50;77.90;;;;;;5050923;28;20029;-62
2022/02/11 06:42:56;;;;;;;25.55;19.80;;;7.50;77.90;;;;;;5051592;28;20025;-62
2022/02/11 06:45:22;;;;;;;25.10;18.30;;;7.60;78.00;;;;;;5045066;28;20082;-62
2022/02/11 06:47:48;;;;;;;22.38;17.48;;;7.70;77.80;;;;;;5047423;28;20021;-62
2022/02/11 06:50:14;;;;;;;25.08;18.40;;;7.80;77.50;;;;;;5049222;28;20025;-62
2022/02/11 06:52:40;;;;;;;23.85;18.63;;;7.80;77.20;;;;;;5052568;28;20023;-62
2022/02/11 06:55:06;;;;;;;24.25;18.13;;;7.80;77.20;;;;;;5049760;28;20114;-62
2022/02/11 06:57:32;;;;;;;24.80;18.83;;;7.90;77.10;;;;;;5051094;28;20040;-62
2022/02/11 06:59:59;;;;;;;22.25;16.75;;;8.00;77.10;;;;;;5052497;28;20024;-62
2022/02/11 07:02:27;;;;;;;25.02;16.38;;;8.00;76.80;;;;;;5047106;28;20058;-62
2022/02/11 07:04:54;;;;;;;21.05;15.60;;;8.10;76.70;;;;;;5051085;28;20013;-62
2022/02/11 07:07:19;;;;;;;17.88;15.00;;;8.10;76.60;;;;;;5045709;28;20815;-62
2022/02/11 07:09:45;;;;;;;18.88;14.35;;;8.20;76.50;;;;;;5049904;28;20040;-62
2022/02/11 07:12:11;;;;;;;17.80;14.55;;;8.20;76.30;;;;;;5048243;28;20031;-62
2022/02/11 07:14:37;;;;;;;19.90;15.20;;;8.30;76.20;;;;;;5051116;28;20111;-62
2022/02/11 07:17:04;;;;;;;20.75;15.23;;;8.30;76.10;;;;;;5052449;28;20036;-62
2022/02/11 07:19:30;;;;;;;21.38;15.77;;;8.30;76.00;;;;;;5052477;28;20036;-62
2022/02/11 07:22:00;;;;;;;21.00;15.77;;;8.30;76.00;;;;;;5049718;28;20067;-62
2022/02/11 07:24:26;;;;;;;23.30;16.98;;;8.40;76.00;;;;;;5051109;28;20104;-62
2022/02/11 07:26:52;;;;;;;23.33;17.77;;;8.40;75.90;;;;;;5046739;28;20064;-62
2022/02/11 07:29:18;;;;;;;21.20;16.70;;;8.50;75.90;;;;;;5049827;28;20057;-62
2022/02/11 07:31:43;;;;;;;24.20;17.77;;;8.50;75.70;;;;;;5041466;28;20033;-62
2022/02/11 07:34:09;;;;;;;23.33;18.05;;;8.50;75.60;;;;;;5053055;28;20529;-62
2022/02/11 07:36:35;;;;;;;22.85;16.65;;;8.60;75.60;;;;;;5049833;28;20032;-62
2022/02/11 07:39:01;;;;;;;24.35;17.88;;;8.60;75.50;;;;;;5047373;28;20126;-62
2022/02/11 07:41:27;;;;;;;23.58;18.83;;;8.60;75.30;;;;;;5049880;28;20049;-62
2022/02/11 07:43:52;;;;;;;20.02;16.00;;;8.70;75.40;;;;;;5049924;28;20043;-62
2022/02/11 07:46:18;;;;;;;19.75;16.48;;;8.70;75.30;;;;;;5043969;28;20111;-62
2022/02/11 07:48:44;;;;;;;21.92;16.60;;;8.80;75.20;;;;;;5044908;28;20111;-62
2022/02/11 07:51:09;;;;;;;21.83;16.77;;;8.80;75.10;;;;;;5050232;28;20124;-63
2022/02/11 07:53:35;;;;;;;19.73;15.80;;;8.80;75.00;;;;;;5045388;28;20183;-62
2022/02/11 07:56:04;;;;;;;21.73;16.35;;;8.90;75.00;;;;;;5041891;28;20049;-63
2022/02/11 07:58:30;;;;;;;19.70;15.55;;;8.90;75.00;;;;;;5043906;28;20025;-63
2022/02/11 08:00:57;;;;;;;19.83;16.23;;;8.90;74.90;;;;;;5037111;28;20040;-62
2022/02/11 08:03:23;;;;;;;20.55;15.88;;;9.00;74.80;;;;;;5044891;28;20385;-63
2022/02/11 08:05:50;;;;;;;22.75;17.80;;;9.00;74.60;;;;;;5043442;28;20032;-63
2022/02/11 08:08:15;;;;;;;21.33;17.15;;;9.00;74.60;;;;;;5040337;28;20055;-63
2022/02/11 08:10:41;;;;;;;19.95;16.58;;;9.10;74.20;;;;;;5039541;28;20037;-63
2022/02/11 08:13:07;;;;;;;20.77;17.00;;;9.10;74.00;;;;;;5042899;28;20418;-63
2022/02/11 08:15:33;;;;;;;18.73;15.68;;;9.10;73.80;;;;;;5041366;28;20120;-65
2022/02/11 08:17:59;;;;;;;18.65;15.38;;;9.20;73.80;;;;;;5029531;28;20025;-63
2022/02/11 08:20:24;;;;;;;19.02;15.90;;;9.20;73.80;;;;;;5037113;28;20538;-64
2022/02/11 08:22:51;;;;;;;18.20;14.85;;;9.20;73.90;;;;;;5036902;28;20595;-63
2022/02/11 08:25:17;;;;;;;20.25;15.77;;;9.20;73.80;;;;;;5043182;28;20025;-63
2022/02/11 08:27:44;;;;;;;18.10;15.88;;;9.20;73.80;;;;;;5044826;28;20051;-63
2022/02/11 08:30:11;;;;;;;19.33;15.23;;;9.20;73.70;;;;;;5044289;28;20025;-63
2022/02/11 08:32:38;;;;;;;20.20;15.35;;;9.30;73.80;;;;;;5041058;28;20090;-61
2022/02/11 08:35:05;;;;;;;21.80;14.98;;;9.30;73.60;;;;;;5041559;28;20128;-63
2022/02/11 08:37:31;;;;;;;17.33;14.32;;;9.30;73.60;;;;;;5043179;28;20034;-63
2022/02/11 08:39:56;;;;;;;16.63;12.88;;;9.40;73.50;;;;;;5044119;28;20082;-63
2022/02/11 08:42:22;;;;;;;16.38;13.40;;;9.40;73.40;;;;;;5043608;28;20025;-63
2022/02/11 08:44:48;;;;;;;16.73;12.93;;;9.40;73.10;;;;;;5039509;28;20028;-60
2022/02/11 08:47:15;;;;;;;16.63;12.38;;;9.50;73.20;;;;;;5044393;28;20033;-60
2022/02/11 08:49:41;;;;;;;19.38;14.30;;;9.40;73.00;;;;;;5040674;28;20060;-60
2022/02/11 08:52:08;;;;;;;16.98;12.98;;;9.50;73.00;;;;;;5041324;28;20489;-62
2022/02/11 08:54:34;;;;;;;18.08;13.63;;;9.50;73.10;;;;;;5041796;28;20053;-63
2022/02/11 08:57:00;;;;;;;17.92;13.82;;;9.50;73.00;;;;;;5040834;28;20072;-63
2022/02/11 08:59:26;;;;;;;20.30;14.00;;;9.50;73.10;;;;;;5044312;28;20025;-63
2022/02/11 09:01:52;;;;;;;18.92;13.07;;;9.50;73.10;;;;;;5044070;28;20037;-63
2022/02/11 09:04:18;;;;;;;18.77;13.80;;;9.60;73.10;;;;;;5047038;28;20678;-63
2022/02/11 09:06:43;;;;;;;16.25;13.20;;;9.60;73.00;;;;;;5047709;28;20155;-63
2022/02/11 09:09:09;;;;;;;18.63;13.85;;;9.60;72.90;;;;;;5040169;28;20029;-63
2022/02/11 09:11:35;;;;;;;18.75;12.80;;;9.70;72.90;;;;;;5039972;28;20550;-63
2022/02/11 09:14:02;;;;;;;15.40;11.90;;;9.70;72.70;;;;;;5039484;28;20068;-61
2022/02/11 09:16:30;;;;;;;15.98;11.93;;;9.80;72.60;;;;;;5045666;28;20676;-62
2022/02/11 09:18:56;;;;;;;17.45;11.82;;;9.80;72.50;;;;;;5040813;28;20032;-61
2022/02/11 09:21:21;;;;;;;17.23;11.95;;;9.90;72.60;;;;;;5043524;28;20044;-61
2022/02/11 09:23:47;;;;;;;15.10;11.70;;;10.00;72.70;;;;;;5040773;28;20025;-61
2022/02/11 09:26:15;;;;;;;17.13;12.77;;;10.10;72.60;;;;;;5041294;28;20116;-61
2022/02/11 09:28:40;;;;;;;15.50;11.60;;;10.20;72.40;;;;;;5041430;28;20032;-61
2022/02/11 09:31:07;;;;;;;15.55;11.80;;;10.30;72.20;;;;;;5041576;28;20025;-61
2022/02/11 09:33:33;;;;;;;14.35;11.57;;;10.40;72.00;;;;;;5040761;28;20455;-61
2022/02/11 09:35:59;;;;;;;18.08;11.25;;;10.50;71.70;;;;;;5037738;28;20041;-61
2022/02/11 09:38:26;;;;;;;14.50;11.32;;;10.60;71.50;;;;;;5040088;28;20179;-61
2022/02/11 09:40:52;;;;;;;14.43;10.70;;;10.70;71.20;;;;;;5040554;28;20087;-61
2022/02/11 09:43:21;;;;;;;14.40;10.80;;;10.80;70.90;;;;;;5038818;28;20025;-61
2022/02/11 09:45:47;;;;;;;14.40;10.88;;;10.90;70.40;;;;;;5039046;28;20037;-61
2022/02/11 09:48:13;;;;;;;13.85;10.05;;;10.90;70.30;;;;;;5044266;28;20497;-61
2022/02/11 09:50:40;;;;;;;16.50;10.40;;;11.00;70.00;;;;;;5039276;28;20029;-63
2022/02/11 09:53:06;;;;;;;12.40;9.93;;;11.10;69.50;;;;;;5040202;28;20021;-61
2022/02/11 09:55:32;;;;;;;12.23;9.40;;;11.20;69.10;;;;;;5041457;28;20131;-61
2022/02/11 09:57:59;;;;;;;12.40;9.65;;;11.20;68.80;;;;;;5036608;28;20115;-61
2022/02/11 10:00:26;;;;;;;11.55;9.32;;;11.30;68.40;;;;;;5040505;28;20025;-61
2022/02/11 10:02:53;;;;;;;13.32;10.48;;;11.30;67.80;;;;;;5036870;28;20025;-61
2022/02/11 10:05:20;;;;;;;13.07;10.02;;;11.30;67.60;;;;;;5043718;28;20024;-61
2022/02/11 10:07:46;;;;;;;11.65;9.35;;;11.30;67.60;;;;;;5040976;28;20033;-61
2022/02/11 10:10:15;;;;;;;10.65;9.25;;;11.30;67.40;;;;;;5041996;28;20250;-61
2022/02/11 10:12:41;;;;;;;12.68;9.52;;;11.30;67.00;;;;;;5039599;28;20032;-61
2022/02/11 10:15:25;;;;;;;11.40;8.90;;;11.30;66.70;;;;;;5040822;28;20079;-61
2022/02/11 10:17:56;;;;;;;10.57;8.50;;;11.30;66.50;;;;;;5039341;28;20076;-61
2022/02/11 10:20:22;;;;;;;12.57;9.50;;;11.40;66.40;;;;;;5041930;28;20616;-63
2022/02/11 10:22:47;;;;;;;12.93;9.65;;;11.40;66.40;;;;;;5036935;28;20764;-61
2022/02/11 10:25:13;;;;;;;10.55;8.55;;;11.40;66.10;;;;;;5035780;28;20024;-61
2022/02/11 10:27:39;;;;;;;10.15;8.32;;;11.40;65.90;;;;;;5043893;28;20163;-61
2022/02/11 10:30:08;;;;;;;14.23;8.20;;;11.50;65.80;;;;;;5043419;28;21422;-61
2022/02/11 10:32:38;;;;;;;10.88;7.90;;;11.50;65.40;;;;;;5045628;28;20133;-61
2022/02/11 10:35:06;;;;;;;10.23;7.97;;;11.60;65.10;;;;;;5046714;28;20041;-61
2022/02/11 10:37:32;;;;;;;9.68;7.75;;;11.60;65.20;;;;;;5046774;28;20059;-61
2022/02/11 10:39:58;;;;;;;9.05;7.45;;;11.70;65.00;;;;;;5053725;28;20635;-61
2022/02/11 10:42:45;;;;;;;8.85;7.75;;;11.80;64.70;;;;;;5054991;28;20040;-61
2022/02/11 10:45:36;;;;;;;7.88;7.07;;;11.90;64.50;;;;;;5052353;28;20020;-61
2022/02/11 10:48:14;;;;;;;10.65;7.82;;;11.90;64.10;;;;;;5037609;28;20040;-62
2022/02/11 10:50:45;;;;;;;11.43;8.32;;;12.00;64.10;;;;;;5045327;28;20116;-61
2022/02/11 10:53:10;;;;;;;10.48;8.10;;;12.00;63.80;;;;;;5042874;28;20032;-61
2022/02/11 10:55:55;;;;;;;12.70;8.32;;;12.10;63.90;;;;;;5047131;28;20029;-61
2022/02/11 10:58:23;;;;;;;12.45;7.70;;;12.10;63.60;;;;;;5039363;28;20039;-62
2022/02/11 11:00:49;;;;;;;9.82;8.40;;;12.20;63.60;;;;;;5042063;28;20032;-61
2022/02/11 11:03:16;;;;;;;12.20;8.45;;;12.20;63.40;;;;;;5041909;28;20036;-61
2022/02/11 11:05:43;;;;;;;10.15;8.27;;;12.20;63.20;;;;;;5045846;28;20075;-61
2022/02/11 11:08:10;;;;;;;10.70;8.30;;;12.20;63.20;;;;;;5041894;28;20088;-61
2022/02/11 11:10:43;;;;;;;12.55;9.20;;;12.20;63.20;;;;;;5045573;28;20032;-61
2022/02/11 11:13:13;;;;;;;11.27;9.00;;;12.20;63.10;;;;;;5044137;28;20033;-61
2022/02/11 11:15:38;;;;;;;11.65;8.57;;;12.20;63.20;;;;;;5038244;28;20033;-61
2022/02/11 11:18:07;;;;;;;10.43;8.80;;;12.20;63.00;;;;;;5041206;28;20064;-62
2022/02/11 11:20:35;;;;;;;11.52;9.48;;;12.20;63.10;;;;;;5041344;28;20037;-61
2022/02/11 11:23:08;;;;;;;14.48;9.15;;;12.20;63.00;;;;;;5044420;28;20396;-61
2022/02/11 11:25:52;;;;;;;14.18;8.93;;;12.30;63.10;;;;;;5044614;28;20100;-61
2022/02/11 11:28:39;;;;;;;11.25;9.32;;;12.30;63.00;;;;;;5044948;28;20040;-61
2022/02/11 11:31:23;;;;;;;11.63;9.50;;;12.30;63.20;;;;;;5039952;28;20025;-61
2022/02/11 11:33:49;;;;;;;12.18;9.77;;;12.30;63.50;;;;;;5043196;28;20025;-61
2022/02/11 11:36:17;;;;;;;13.85;9.85;;;12.30;63.10;;;;;;5038076;28;20029;-64
2022/02/11 11:39:09;;;;;;;13.05;9.88;;;12.40;63.20;;;;;;5038331;28;20017;-63
2022/02/11 11:41:35;;;;;;;12.52;10.50;;;12.40;63.00;;;;;;5041883;28;20032;-63
2022/02/11 11:44:22;;;;;;;14.05;8.85;;;12.40;62.90;;;;;;5042614;28;20413;-63
2022/02/11 11:47:03;;;;;;;10.95;9.32;;;12.40;62.80;;;;;;5043725;28;20500;-63
2022/02/11 11:49:41;;;;;;;10.85;9.68;;;12.30;62.90;;;;;;5038655;28;20048;-63
2022/02/11 11:52:09;;;;;;;12.57;8.98;;;12.30;62.70;;;;;;5041475;28;20388;-63
2022/02/11 11:54:36;;;;;;;12.75;9.35;;;12.20;62.70;;;;;;5040006;28;20068;-63
2022/02/11 11:57:17;;;;;;;13.07;9.55;;;12.20;62.70;;;;;;5044409;28;20036;-63
2022/02/11 11:59:48;;;;;;;13.50;9.63;;;12.10;62.70;;;;;;5039534;28;20036;-63
2022/02/11 12:02:35;;;;;;;9.43;8.27;;;12.10;63.10;;;;;;5046851;28;20033;-63
2022/02/11 12:05:02;;;;;;;11.45;9.05;;;12.00;62.80;;;;;;5038723;28;20533;-63
2022/02/11 12:07:35;;;;;;;10.93;8.88;;;12.00;62.90;;;;;;5043620;28;20021;-63
2022/02/11 12:10:06;;;;;;;12.68;9.05;;;12.00;63.00;;;;;;5047597;28;20121;-63
2022/02/11 12:12:36;;;;;;;11.95;8.88;;;11.90;63.10;;;;;;5044472;28;20033;-63
2022/02/11 12:15:04;;;;;;;11.18;8.73;;;11.90;63.20;;;;;;5044970;28;20044;-63
2022/02/11 12:17:30;;;;;;;8.60;7.35;;;11.80;63.40;;;;;;5042190;28;20075;-62
2022/02/11 12:19:56;;;;;;;11.77;9.50;;;11.80;63.60;;;;;;5046163;28;20600;-62
2022/02/11 12:22:25;;;;;;;12.30;9.80;;;11.70;63.80;;;;;;5042705;28;20061;-63
2022/02/11 12:27:42;;;;;;;11.70;9.40;;;11.60;64.50;;;;;;5045149;28;20125;-63
2022/02/11 12:30:14;;;;;;;12.23;10.07;;;11.50;64.60;;;;;;5040568;28;20036;-63
2022/02/11 12:32:43;;;;;;;12.95;10.02;;;11.50;64.80;;;;;;5040492;28;20072;-63
2022/02/11 12:35:14;;;;;;;13.32;9.98;;;11.40;65.20;;;;;;5036801;28;20417;-63
2022/02/11 12:37:42;;;;;;;12.05;9.73;;;11.30;65.50;;;;;;5043449;28;20032;-63
2022/02/11 12:40:10;;;;;;;11.45;9.77;;;11.30;65.70;;;;;;5047232;28;20032;-62
2022/02/11 12:42:38;;;;;;;13.40;9.40;;;11.20;65.80;;;;;;5046187;28;20043;-62
2022/02/11 12:45:05;;;;;;;13.25;10.18;;;11.20;65.80;;;;;;5043410;28;20540;-63
2022/02/11 12:47:33;;;;;;;13.32;10.00;;;11.20;66.00;;;;;;5048525;28;20589;-63
2022/02/11 12:50:00;;;;;;;13.18;10.48;;;11.20;66.00;;;;;;5051073;28;22209;-62
2022/02/11 12:52:28;;;;;;;12.52;10.30;;;11.10;66.10;;;;;;5049554;28;20126;-62
2022/02/11 12:55:16;;;;;;;13.27;10.55;;;11.10;66.30;;;;;;5044298;28;20060;-62
2022/02/11 12:57:53;;;;;;;13.25;10.70;;;11.10;66.30;;;;;;5048687;28;20066;-62
2022/02/11 13:00:22;;;;;;;13.98;11.40;;;11.10;66.50;;;;;;5046732;28;20067;-63
2022/02/11 13:02:50;;;;;;;14.25;11.02;;;11.00;66.60;;;;;;5042396;28;20063;-63
2022/02/11 13:05:21;;;;;;;15.52;11.43;;;11.00;66.60;;;;;;5042239;28;20037;-63
2022/02/11 13:07:51;;;;;;;14.32;11.25;;;11.00;66.60;;;;;;5044192;28;20515;-62
2022/02/11 13:10:22;;;;;;;13.45;11.07;;;10.90;66.70;;;;;;5045913;28;20098;-62
2022/02/11 13:12:53;;;;;;;15.13;11.00;;;10.80;67.00;;;;;;5042696;28;20497;-62
2022/02/11 13:15:20;;;;;;;13.07;10.57;;;10.80;67.10;;;;;;5039604;28;20041;-63
2022/02/11 13:17:47;;;;;;;14.20;11.10;;;10.70;67.30;;;;;;5047067;28;20028;-62
2022/02/11 13:20:18;;;;;;;14.85;11.85;;;10.70;67.50;;;;;;5043058;28;20047;-62
2022/02/11 13:22:45;;;;;;;15.93;12.63;;;10.70;67.70;;;;;;5047521;28;22538;-62
2022/02/11 13:25:12;;;;;;;15.63;12.07;;;10.70;67.70;;;;;;5045570;28;20040;-63
2022/02/11 13:27:52;;;;;;;14.65;11.60;;;10.60;67.90;;;;;;5045691;28;20490;-63
2022/02/11 13:30:27;;;;;;;14.98;12.63;;;10.60;68.10;;;;;;5047580;28;20047;-62
2022/02/11 13:32:55;;;;;;;15.07;11.60;;;10.50;68.20;;;;;;5050584;28;20071;-62
2022/02/11 13:35:21;;;;;;;13.77;11.63;;;10.40;68.30;;;;;;5045112;28;20049;-63
2022/02/11 13:37:50;;;;;;;15.05;12.48;;;10.40;68.40;;;;;;5050709;28;20028;-62
2022/02/11 13:40:20;;;;;;;15.60;11.95;;;10.40;68.50;;;;;;5053287;28;20032;-62
2022/02/11 13:42:56;;;;;;;14.27;12.10;;;10.30;68.60;;;;;;5048515;28;20036;-62
2022/02/11 13:45:23;;;;;;;14.30;12.35;;;10.30;68.90;;;;;;5044870;28;20033;-62
2022/02/11 13:48:07;;;;;;;14.70;12.27;;;10.20;68.90;;;;;;5047230;28;20029;-62
2022/02/11 13:50:55;;;;;;;13.55;11.60;;;10.20;69.10;;;;;;5045628;28;20029;-62
2022/02/11 13:53:29;;;;;;;15.95;12.95;;;10.10;69.10;;;;;;5050728;28;20436;-62
2022/02/11 13:55:54;;;;;;;14.00;12.30;;;10.10;69.20;;;;;;5048146;28;20056;-62
2022/02/11 13:58:20;;;;;;;14.25;11.75;;;10.10;69.30;;;;;;5051208;28;20444;-62
2022/02/11 14:00:46;;;;;;;15.45;11.93;;;10.00;69.40;;;;;;5047660;28;20032;-62
2022/02/11 14:03:20;;;;;;;15.95;12.57;;;10.00;69.50;;;;;;5044808;28;20497;-62
2022/02/11 14:05:47;;;;;;;14.90;12.18;;;10.00;69.60;;;;;;5052414;28;20040;-62
2022/02/11 14:08:12;;;;;;;15.25;12.85;;;9.90;69.70;;;;;;5046549;28;20115;-63
2022/02/11 14:10:38;;;;;;;13.85;11.73;;;9.90;69.90;;;;;;5050019;28;20112;-62
2022/02/11 14:13:08;;;;;;;15.65;12.48;;;9.90;69.90;;;;;;5050229;28;20029;-63
2022/02/11 14:15:35;;;;;;;16.15;13.00;;;9.90;69.90;;;;;;5049198;28;20032;-62
2022/02/11 14:18:03;;;;;;;15.10;12.43;;;9.90;70.00;;;;;;5052832;28;20056;-62
2022/02/11 14:20:29;;;;;;;14.80;12.43;;;9.90;70.10;;;;;;5053222;28;20017;-63
2022/02/11 14:22:54;;;;;;;16.85;12.75;;;9.90;70.10;;;;;;5051144;28;20556;-63
2022/02/11 14:25:20;;;;;;;16.83;13.73;;;9.90;70.00;;;;;;5050771;28;20449;-63
2022/02/11 14:27:46;;;;;;;16.10;12.70;;;9.80;70.00;;;;;;5053130;28;20035;-62
2022/02/11 14:30:12;;;;;;;15.77;13.55;;;9.90;70.20;;;;;;5049556;28;20036;-63
2022/02/11 14:32:38;;;;;;;17.25;14.07;;;9.80;70.20;;;;;;5047991;28;20476;-62
2022/02/11 14:35:04;;;;;;;17.48;14.25;;;9.90;70.20;;;;;;5047101;28;20044;-62
2022/02/11 14:37:30;;;;;;;15.73;13.23;;;9.90;70.20;;;;;;5051442;28;20029;-62
2022/02/11 14:39:56;;;;;;;13.57;12.15;;;9.90;70.20;;;;;;5050221;28;20025;-62
2022/02/11 14:42:22;;;;;;;15.38;12.60;;;9.90;70.10;;;;;;5053254;28;20025;-62
2022/02/11 14:44:48;;;;;;;17.70;13.93;;;9.90;70.10;;;;;;5052390;28;20033;-62
2022/02/11 14:47:13;;;;;;;19.90;14.32;;;9.90;70.10;;;;;;5051138;28;20742;-62
2022/02/11 14:49:41;;;;;;;18.58;14.68;;;9.90;70.10;;;;;;5052111;28;20120;-62
2022/02/11 14:52:08;;;;;;;17.27;14.82;;;9.90;70.20;;;;;;5049288;28;20063;-62
2022/02/11 14:54:35;;;;;;;17.77;13.88;;;9.90;70.20;;;;;;5052767;28;20107;-62
2022/02/11 14:57:02;;;;;;;17.13;13.10;;;9.90;70.20;;;;;;5050816;28;20829;-62
2022/02/11 14:59:28;;;;;;;18.13;13.93;;;9.90;70.10;;;;;;5047546;28;20047;-62
2022/02/11 15:01:55;;;;;;;18.17;14.07;;;9.80;70.20;;;;;;5044910;28;20025;-62
2022/02/11 15:04:21;;;;;;;16.15;13.40;;;9.80;70.20;;;;;;5046963;28;20036;-63
2022/02/11 15:06:50;;;;;;;21.13;15.38;;;9.80;70.30;;;;;;5046926;28;20072;-63
2022/02/11 15:09:17;;;;;;;19.55;16.15;;;9.80;70.30;;;;;;5043780;28;20041;-62
2022/02/11 15:11:43;;;;;;;15.43;13.45;;;9.80;70.30;;;;;;5046741;28;20049;-62
2022/02/11 15:14:09;;;;;;;19.95;14.82;;;9.80;70.30;;;;;;5049880;28;20071;-62
2022/02/11 15:16:35;;;;;;;19.63;15.48;;;9.80;70.40;;;;;;5050679;28;20029;-62
2022/02/11 15:19:02;;;;;;;18.45;14.32;;;9.80;70.40;;;;;;5050997;28;20473;-62
2022/02/11 15:21:28;;;;;;;19.15;14.77;;;9.80;70.40;;;;;;5047237;28;20071;-63
2022/02/11 15:23:53;;;;;;;16.83;14.10;;;9.80;70.30;;;;;;5052173;28;20028;-62
2022/02/11 15:26:20;;;;;;;18.88;14.30;;;9.80;70.40;;;;;;5048268;28;20086;-62
2022/02/11 15:28:46;;;;;;;17.17;14.20;;;9.80;70.30;;;;;;5042939;28;20041;-63
2022/02/11 15:31:12;;;;;;;17.70;13.85;;;9.80;70.20;;;;;;5045703;28;20099;-62
2022/02/11 15:33:41;;;;;;;16.00;13.25;;;9.80;70.30;;;;;;5047051;28;20032;-63
2022/02/11 15:36:08;;;;;;;16.38;13.18;;;9.70;70.30;;;;;;5047147;28;20040;-62
2022/02/11 15:38:34;;;;;;;14.93;13.00;;;9.80;70.20;;;;;;5045655;28;20037;-62
2022/02/11 15:41:00;;;;;;;18.95;14.23;;;9.80;70.10;;;;;;5052152;28;20036;-62
2022/02/11 15:43:25;;;;;;;17.05;13.13;;;9.70;70.00;;;;;;5050448;28;20025;-62
2022/02/11 15:45:51;;;;;;;16.27;13.30;;;9.70;69.80;;;;;;5048528;28;20097;-62
2022/02/11 15:48:17;;;;;;;18.35;14.05;;;9.70;69.80;;;;;;5045193;28;20025;-62
2022/02/11 15:50:43;;;;;;;14.50;12.02;;;9.70;69.70;;;;;;5042303;28;20031;-62
2022/02/11 15:53:13;;;;;;;14.65;12.27;;;9.70;69.70;;;;;;5046322;28;20025;-62
2022/02/11 15:55:39;;;;;;;16.48;12.38;;;9.60;69.50;;;;;;5047168;28;20029;-62
2022/02/11 15:58:05;;;;;;;17.88;13.52;;;9.60;69.50;;;;;;5046449;28;20071;-62
2022/02/11 16:00:33;;;;;;;16.35;14.00;;;9.60;69.40;;;;;;5046516;28;20025;-62
2022/02/11 16:03:00;;;;;;;20.95;15.93;;;9.50;69.40;;;;;;5049415;28;20060;-62
2022/02/11 16:05:26;;;;;;;20.33;15.80;;;9.50;69.30;;;;;;5045303;28;20017;-62
2022/02/11 16:07:54;;;;;;;24.40;17.63;;;9.50;69.30;;;;;;5051207;28;20569;-62
2022/02/11 16:10:22;;;;;;;26.15;18.95;;;9.50;69.40;;;;;;5050692;28;20090;-62
2022/02/11 16:12:48;;;;;;;22.88;17.30;;;9.50;69.40;;;;;;5049846;28;20040;-62
2022/02/11 16:15:15;;;;;;;20.95;16.15;;;9.40;69.40;;;;;;5055485;28;20606;-62
2022/02/11 16:18:01;;;;;;;21.23;16.55;;;9.40;69.50;;;;;;5050400;28;20753;-62
2022/02/11 16:20:38;;;;;;;20.83;15.90;;;9.40;69.40;;;;;;5048806;28;20029;-62
2022/02/11 16:23:06;;;;;;;18.83;14.82;;;9.40;69.50;;;;;;5048205;28;20476;-62
2022/02/11 16:25:34;;;;;;;19.38;15.82;;;9.40;69.60;;;;;;5048630;28;20033;-62